createdAt,value
2018-12-01T00:00:21.989Z,3.57
2018-12-01T00:02:50.751Z,3.30
2018-12-01T00:05:19.103Z,3.50
2018-12-01T00:07:47.761Z,3.90
2018-12-01T00:10:16.345Z,3.03
2018-12-01T00:12:44.690Z,4.07
2018-12-01T00:15:16.179Z,3.53
2018-12-01T00:17:44.690Z,3.20
2018-12-01T00:20:14.488Z,3.27
2018-12-01T00:22:42.831Z,3.37
2018-12-01T00:25:11.355Z,2.90
2018-12-01T00:27:39.670Z,2.90
2018-12-01T00:30:14.134Z,2.90
2018-12-01T00:32:42.869Z,2.93
2018-12-01T00:35:11.973Z,3.17
2018-12-01T00:37:40.430Z,2.70
2018-12-01T00:40:12.087Z,3.13
2018-12-01T00:42:40.628Z,3.70
2018-12-01T00:45:10.774Z,2.80
2018-12-01T00:47:46.618Z,2.63
2018-12-01T00:50:17.869Z,2.93
2018-12-01T00:52:46.884Z,3.00
2018-12-01T00:55:16.104Z,3.40
2018-12-01T00:57:44.626Z,3.17
2018-12-01T01:00:21.678Z,2.77
2018-12-01T01:02:52.452Z,3.23
2018-12-01T01:05:21.558Z,3.10
2018-12-01T01:07:50.001Z,3.67
2018-12-01T01:10:18.838Z,3.67
2018-12-01T01:12:47.539Z,3.20
2018-12-01T01:15:15.939Z,3.30
2018-12-01T01:17:44.663Z,3.70
2018-12-01T01:20:14.246Z,3.60
2018-12-01T01:22:42.610Z,3.87
2018-12-01T01:25:12.038Z,3.47
2018-12-01T01:27:40.419Z,3.23
2018-12-01T01:30:13.319Z,3.17
2018-12-01T01:32:41.632Z,2.80
2018-12-01T01:35:09.929Z,2.87
2018-12-01T01:37:38.521Z,2.83
2018-12-01T01:40:08.631Z,2.80
2018-12-01T01:42:37.009Z,2.83
2018-12-01T01:45:08.922Z,2.77
2018-12-01T01:47:37.251Z,2.80
2018-12-01T01:50:07.735Z,2.70
2018-12-01T01:52:36.252Z,2.90
2018-12-01T01:55:05.740Z,3.17
2018-12-01T01:57:34.111Z,2.77
2018-12-01T02:00:02.700Z,2.70
2018-12-01T02:02:31.024Z,2.70
2018-12-01T02:04:59.330Z,2.60
2018-12-01T02:07:27.846Z,2.60
2018-12-01T02:09:56.164Z,3.00
2018-12-01T02:12:24.482Z,2.57
2018-12-01T02:14:53.002Z,2.83
2018-12-01T02:17:21.347Z,2.93
2018-12-01T02:19:49.680Z,2.87
2018-12-01T02:22:18.279Z,4.03
2018-12-01T02:24:46.613Z,2.80
2018-12-01T02:27:14.963Z,2.50
2018-12-01T02:29:43.499Z,3.00
2018-12-01T02:32:11.833Z,2.57
2018-12-01T02:34:40.249Z,2.80
2018-12-01T02:37:08.755Z,2.43
2018-12-01T02:39:37.148Z,2.80
2018-12-01T02:42:05.761Z,2.43
2018-12-01T02:44:59.987Z,2.83
2018-12-01T02:47:28.322Z,2.47
2018-12-01T02:49:56.686Z,2.87
2018-12-01T02:52:25.431Z,2.90
2018-12-01T02:54:53.840Z,2.97
2018-12-01T02:57:22.149Z,2.67
2018-12-01T02:59:50.667Z,2.87
2018-12-01T03:02:19.495Z,2.67
2018-12-01T03:04:47.814Z,2.70
2018-12-01T03:07:16.315Z,3.00
2018-12-01T03:09:44.711Z,3.40
2018-12-01T03:12:13.023Z,3.13
2018-12-01T03:14:41.542Z,3.00
2018-12-01T03:17:09.874Z,3.07
2018-12-01T03:19:38.191Z,3.47
2018-12-01T03:22:06.806Z,2.93
2018-12-01T03:24:35.134Z,2.90
2018-12-01T03:27:03.462Z,2.90
2018-12-01T03:29:32.062Z,3.10
2018-12-01T03:32:00.402Z,3.20
2018-12-01T03:34:28.712Z,2.60
2018-12-01T03:36:57.276Z,3.03
2018-12-01T03:39:25.615Z,3.20
2018-12-01T03:41:53.916Z,2.77
2018-12-01T03:44:29.046Z,2.83
2018-12-01T03:46:57.377Z,2.87
2018-12-01T03:49:25.693Z,3.00
2018-12-01T03:51:54.300Z,3.20
2018-12-01T03:54:22.646Z,2.90
2018-12-01T03:56:51.010Z,2.97
2018-12-01T03:59:19.522Z,3.17
2018-12-01T04:01:47.870Z,2.90
2018-12-01T04:04:16.222Z,3.37
2018-12-01T04:06:44.766Z,3.10
2018-12-01T04:09:18.474Z,3.40
2018-12-01T04:11:47.051Z,3.57
2018-12-01T04:14:15.368Z,3.13
2018-12-01T04:16:43.739Z,2.97
2018-12-01T04:19:12.488Z,2.53
2018-12-01T04:21:40.833Z,2.70
2018-12-01T04:24:09.171Z,2.33
2018-12-01T04:26:37.736Z,3.20
2018-12-01T04:29:06.082Z,2.50
2018-12-01T04:31:34.396Z,2.30
2018-12-01T04:34:02.970Z,2.60
2018-12-01T04:36:31.312Z,2.67
2018-12-01T04:38:59.659Z,2.70
2018-12-01T04:41:28.202Z,2.83
2018-12-01T04:43:56.620Z,2.50
2018-12-01T04:46:24.930Z,2.40
2018-12-01T04:48:53.442Z,2.73
2018-12-01T04:51:21.824Z,2.80
2018-12-01T04:53:50.166Z,2.70
2018-12-01T04:56:18.893Z,2.10
2018-12-01T04:58:47.224Z,2.80
2018-12-01T05:01:16.416Z,3.00
2018-12-01T05:03:44.820Z,2.60
2018-12-01T05:06:13.159Z,2.70
2018-12-01T05:08:41.499Z,2.47
2018-12-01T05:11:10.180Z,2.60
2018-12-01T05:13:38.494Z,2.80
2018-12-01T05:16:06.815Z,2.60
2018-12-01T05:18:35.430Z,2.70
2018-12-01T05:21:03.811Z,2.23
2018-12-01T05:23:32.280Z,2.40
2018-12-01T05:26:00.861Z,2.53
2018-12-01T05:28:29.192Z,2.63
2018-12-01T05:30:57.524Z,3.00
2018-12-01T05:33:26.311Z,2.63
2018-12-01T05:35:54.663Z,2.50
2018-12-01T05:38:22.996Z,2.60
2018-12-01T05:40:51.407Z,2.50
2018-12-01T05:43:19.825Z,2.60
2018-12-01T05:45:48.204Z,2.37
2018-12-01T05:48:16.791Z,2.03
2018-12-01T05:50:46.158Z,2.43
2018-12-01T05:53:14.494Z,3.33
2018-12-01T05:55:43.245Z,2.63
2018-12-01T05:58:11.552Z,2.70
2018-12-01T06:00:39.924Z,2.50
2018-12-01T06:03:08.483Z,2.73
2018-12-01T06:05:36.937Z,2.50
2018-12-01T06:08:05.991Z,2.93
2018-12-01T06:10:34.548Z,3.17
2018-12-01T06:13:03.250Z,2.70
2018-12-01T06:15:32.262Z,3.43
2018-12-01T06:18:00.782Z,2.97
2018-12-01T06:20:29.231Z,3.50
2018-12-01T06:22:57.579Z,3.47
2018-12-01T06:25:26.196Z,2.90
2018-12-01T06:27:55.242Z,3.47
2018-12-01T06:30:23.776Z,3.40
2018-12-01T06:32:52.920Z,3.53
2018-12-01T06:35:21.374Z,3.47
2018-12-01T06:37:49.732Z,4.00
2018-12-01T06:40:19.424Z,3.70
2018-12-01T06:42:47.916Z,4.23
2018-12-01T06:45:16.816Z,4.30
2018-12-01T06:47:45.449Z,4.63
2018-12-01T06:50:16.022Z,4.37
2018-12-01T06:52:44.411Z,4.57
2018-12-01T06:55:14.170Z,4.40
2018-12-01T06:57:43.284Z,4.53
2018-12-01T07:00:19.931Z,4.67
2018-12-01T07:02:48.755Z,4.73
2018-12-01T07:05:17.530Z,4.30
2018-12-01T07:07:46.053Z,4.73
2018-12-01T07:10:16.265Z,4.37
2018-12-01T07:12:47.289Z,4.23
2018-12-01T07:15:19.233Z,4.50
2018-12-01T07:17:47.567Z,4.13
2018-12-01T07:20:16.583Z,4.70
2018-12-01T07:22:44.917Z,4.73
2018-12-01T07:25:13.359Z,4.10
2018-12-01T07:27:42.029Z,3.80
2018-12-01T07:30:11.736Z,4.03
2018-12-01T07:32:40.377Z,3.90
2018-12-01T07:35:09.319Z,4.00
2018-12-01T07:37:37.993Z,3.93
2018-12-01T07:40:15.417Z,4.17
2018-12-01T07:42:43.740Z,4.40
2018-12-01T07:45:13.313Z,4.10
2018-12-01T07:47:42.169Z,3.97
2018-12-01T07:50:12.727Z,4.13
2018-12-01T07:52:41.734Z,4.60
2018-12-01T07:55:10.274Z,4.00
2018-12-01T07:57:38.623Z,5.83
2018-12-01T08:00:19.108Z,4.70
2018-12-01T08:02:48.920Z,4.93
2018-12-01T08:05:17.295Z,4.43
2018-12-01T08:07:45.840Z,4.60
2018-12-01T08:10:15.238Z,4.03
2018-12-01T08:12:43.678Z,3.90
2018-12-01T08:15:16.400Z,4.30
2018-12-01T08:17:45.232Z,4.20
2018-12-01T08:20:14.396Z,4.10
2018-12-01T08:22:43.024Z,4.20
2018-12-01T08:25:13.121Z,4.60
2018-12-01T08:27:41.547Z,4.17
2018-12-01T08:30:12.377Z,4.90
2018-12-01T08:32:40.746Z,4.07
2018-12-01T08:35:09.077Z,4.37
2018-12-01T08:37:37.847Z,4.43
2018-12-01T08:40:09.352Z,4.20
2018-12-01T08:42:37.156Z,4.20
2018-12-01T08:45:08.559Z,4.03
2018-12-01T08:47:38.456Z,4.03
2018-12-01T08:50:10.643Z,3.70
2018-12-01T08:52:39.201Z,4.20
2018-12-01T08:55:10.251Z,4.90
2018-12-01T08:57:38.958Z,4.30
2018-12-01T09:00:18.421Z,4.43
2018-12-01T09:02:48.613Z,4.40
2018-12-01T09:05:18.143Z,4.17
2018-12-01T09:07:48.154Z,4.67
2018-12-01T09:10:16.925Z,4.67
2018-12-01T09:12:45.760Z,5.20
2018-12-01T09:15:14.119Z,4.53
2018-12-01T09:17:42.620Z,5.17
2018-12-01T09:20:12.727Z,5.83
2018-12-01T09:22:44.041Z,5.23
2018-12-01T09:25:14.402Z,4.97
2018-12-01T09:27:42.907Z,4.43
2018-12-01T09:30:15.891Z,5.40
2018-12-01T09:32:44.704Z,4.57
2018-12-01T09:35:13.069Z,5.57
2018-12-01T09:37:41.690Z,4.60
2018-12-01T09:40:13.238Z,5.40
2018-12-01T09:42:41.767Z,4.63
2018-12-01T09:45:18.289Z,4.40
2018-12-01T09:47:47.793Z,3.90
2018-12-01T09:50:16.171Z,4.40
2018-12-01T09:52:45.725Z,4.10
2018-12-01T09:55:18.241Z,3.90
2018-12-01T09:57:47.235Z,4.40
2018-12-01T10:00:27.770Z,4.43
2018-12-01T10:02:56.212Z,4.00
2018-12-01T10:05:24.604Z,4.30
2018-12-01T10:07:52.971Z,4.57
2018-12-01T10:10:22.381Z,4.43
2018-12-01T10:12:54.902Z,4.07
2018-12-01T10:15:25.339Z,3.80
2018-12-01T10:17:54.295Z,4.07
2018-12-01T10:20:27.021Z,3.80
2018-12-01T10:22:55.715Z,4.23
2018-12-01T10:25:24.113Z,5.40
2018-12-01T10:27:52.817Z,4.40
2018-12-01T10:30:21.897Z,4.37
2018-12-01T10:32:51.060Z,4.17
2018-12-01T10:35:20.885Z,5.70
2018-12-01T10:37:55.649Z,5.23
2018-12-01T10:40:24.067Z,4.57
2018-12-01T10:45:29.559Z,5.13
2018-12-01T10:47:57.917Z,4.93
2018-12-01T10:50:26.283Z,4.70
2018-12-01T10:52:55.601Z,5.17
2018-12-01T10:55:27.903Z,5.13
2018-12-01T10:58:03.430Z,5.10
2018-12-01T11:00:37.547Z,5.40
2018-12-01T11:03:11.056Z,5.80
2018-12-01T11:05:39.387Z,5.70
2018-12-01T11:08:08.822Z,5.60
2018-12-01T11:10:37.753Z,6.27
2018-12-01T11:13:06.104Z,6.00
2018-12-01T11:15:34.433Z,5.57
2018-12-01T11:18:02.866Z,6.30
2018-12-01T11:20:31.205Z,5.70
2018-12-01T11:22:59.535Z,6.43
2018-12-01T11:25:28.079Z,5.63
2018-12-01T11:27:56.446Z,5.50
2018-12-01T11:30:24.762Z,5.77
2018-12-01T11:32:53.211Z,5.30
2018-12-01T11:35:21.534Z,5.90
2018-12-01T11:37:50.056Z,6.00
2018-12-01T11:40:19.056Z,5.47
2018-12-01T11:42:47.814Z,5.57
2018-12-01T11:45:16.913Z,5.90
2018-12-01T11:47:45.542Z,5.60
2018-12-01T11:50:16.912Z,5.73
2018-12-01T11:52:47.252Z,6.07
2018-12-01T11:55:17.656Z,5.90
2018-12-01T11:57:45.976Z,6.13
2018-12-01T12:00:18.576Z,6.43
2018-12-01T12:02:46.942Z,5.80
2018-12-01T12:05:16.186Z,5.90
2018-12-01T12:07:56.100Z,6.00
2018-12-01T12:10:24.597Z,5.90
2018-12-01T12:12:53.016Z,5.70
2018-12-01T12:15:23.239Z,5.63
2018-12-01T12:17:59.374Z,5.63
2018-12-01T12:20:28.124Z,5.70
2018-12-01T12:22:56.436Z,5.20
2018-12-01T12:25:24.789Z,5.83
2018-12-01T12:27:53.395Z,5.37
2018-12-01T12:30:25.845Z,5.40
2018-12-01T12:32:51.503Z,6.20
2018-12-01T12:35:20.100Z,6.40
2018-12-01T12:37:48.441Z,5.93
2018-12-01T12:40:21.176Z,5.97
2018-12-01T12:42:49.737Z,6.30
2018-12-01T12:45:18.128Z,6.00
2018-12-01T12:47:46.737Z,6.47
2018-12-01T12:50:16.154Z,6.30
2018-12-01T12:52:45.227Z,6.00
2018-12-01T12:55:17.534Z,6.30
2018-12-01T12:57:45.885Z,5.57
2018-12-01T13:00:24.426Z,5.83
2018-12-01T13:02:55.561Z,6.40
2018-12-01T13:05:30.315Z,5.93
2018-12-01T13:07:58.638Z,6.20
2018-12-01T13:10:27.207Z,5.90
2018-12-01T13:12:58.789Z,6.17
2018-12-01T13:15:27.123Z,6.20
2018-12-01T13:17:55.486Z,5.77
2018-12-01T13:20:25.070Z,5.90
2018-12-01T13:22:55.777Z,5.60
2018-12-01T13:25:24.113Z,5.73
2018-12-01T13:27:55.309Z,5.40
2018-12-01T13:30:25.159Z,5.63
2018-12-01T13:32:53.650Z,5.80
2018-12-01T13:35:22.073Z,5.47
2018-12-01T13:37:50.419Z,5.63
2018-12-01T13:40:18.749Z,5.40
2018-12-01T13:42:47.586Z,5.50
2018-12-01T13:45:16.950Z,5.40
2018-12-01T13:47:46.300Z,5.50
2018-12-01T13:50:16.791Z,5.30
2018-12-01T13:52:49.561Z,5.10
2018-12-01T13:55:18.213Z,5.27
2018-12-01T13:57:47.550Z,5.07
2018-12-01T14:00:17.858Z,5.80
2018-12-01T14:02:46.638Z,5.97
2018-12-01T14:05:14.989Z,5.60
2018-12-01T14:07:43.454Z,6.33
2018-12-01T14:10:16.176Z,6.00
2018-12-01T14:12:45.708Z,5.50
2018-12-01T14:15:15.432Z,5.77
2018-12-01T14:17:43.964Z,5.97
2018-12-01T14:20:16.014Z,6.00
2018-12-01T14:22:45.334Z,6.80
2018-12-01T14:25:15.839Z,5.60
2018-12-01T14:27:49.060Z,6.03
2018-12-01T14:30:17.741Z,5.83
2018-12-01T14:32:46.536Z,5.13
2018-12-01T14:35:16.348Z,5.40
2018-12-01T14:37:45.877Z,5.67
2018-12-01T14:40:14.300Z,5.43
2018-12-01T14:42:43.505Z,4.97
2018-12-01T14:45:12.922Z,4.60
2018-12-01T14:47:41.236Z,4.93
2018-12-01T14:50:17.684Z,4.87
2018-12-01T14:52:47.141Z,4.10
2018-12-01T14:55:17.742Z,4.40
2018-12-01T14:57:47.206Z,4.97
2018-12-01T15:00:22.000Z,4.60
2018-12-01T15:02:51.245Z,4.37
2018-12-01T15:05:19.877Z,5.30
2018-12-01T15:07:48.825Z,4.70
2018-12-01T15:10:19.258Z,4.60
2018-12-01T15:12:47.607Z,5.17
2018-12-01T15:15:18.249Z,5.30
2018-12-01T15:17:46.934Z,5.03
2018-12-01T15:20:17.430Z,4.37
2018-12-01T15:22:47.236Z,4.20
2018-12-01T15:25:19.587Z,4.87
2018-12-01T15:27:48.034Z,4.40
2018-12-01T15:30:21.389Z,4.30
2018-12-01T15:33:18.751Z,4.40
2018-12-01T15:35:47.296Z,3.97
2018-12-01T15:38:15.915Z,4.17
2018-12-01T15:40:45.657Z,4.03
2018-12-01T15:43:14.069Z,3.93
2018-12-01T15:45:42.510Z,4.23
2018-12-01T15:48:11.071Z,4.07
2018-12-01T15:50:39.398Z,3.20
2018-12-01T15:53:10.474Z,3.20
2018-12-01T15:55:38.972Z,3.50
2018-12-01T15:58:07.732Z,3.20
2018-12-01T16:00:36.717Z,3.13
2018-12-01T16:03:05.257Z,3.00
2018-12-01T16:05:33.635Z,2.93
2018-12-01T16:08:02.177Z,2.97
2018-12-01T16:10:30.749Z,3.03
2018-12-01T16:13:09.665Z,2.80
2018-12-01T16:15:40.120Z,2.90
2018-12-01T16:18:08.974Z,3.17
2018-12-01T16:20:37.359Z,2.60
2018-12-01T16:23:05.961Z,2.60
2018-12-01T16:25:34.275Z,2.83
2018-12-01T16:28:02.665Z,2.40
2018-12-01T16:30:36.412Z,2.67
2018-12-01T16:33:07.032Z,3.13
2018-12-01T16:35:35.417Z,2.47
2018-12-01T16:38:04.391Z,2.83
2018-12-01T16:40:40.776Z,2.73
2018-12-01T16:43:10.823Z,2.90
2018-12-01T16:45:39.561Z,2.67
2018-12-01T16:48:08.036Z,3.10
2018-12-01T16:50:36.603Z,3.27
2018-12-01T16:53:06.717Z,3.27
2018-12-01T16:55:35.289Z,2.80
2018-12-01T16:58:03.803Z,2.90
2018-12-01T17:00:32.377Z,2.73
2018-12-01T17:03:00.853Z,3.20
2018-12-01T17:05:31.483Z,2.90
2018-12-01T17:08:00.022Z,2.90
2018-12-01T17:10:28.410Z,2.70
2018-12-01T17:12:58.407Z,2.77
2018-12-01T17:15:26.194Z,2.87
2018-12-01T17:17:54.584Z,2.70
2018-12-01T17:20:23.242Z,2.60
2018-12-01T17:22:56.104Z,2.90
2018-12-01T17:25:24.646Z,2.60
2018-12-01T17:27:54.202Z,2.57
2018-12-01T17:30:23.560Z,2.57
2018-12-01T17:32:52.792Z,2.90
2018-12-01T17:35:26.019Z,2.10
2018-12-01T17:37:56.002Z,2.10
2018-12-01T17:40:31.248Z,2.30
2018-12-01T17:42:59.852Z,1.83
2018-12-01T17:45:28.160Z,1.37
2018-12-01T17:47:56.620Z,1.53
2018-12-01T17:50:25.294Z,1.30
2018-12-01T17:52:54.934Z,1.90
2018-12-01T17:55:24.281Z,1.70
2018-12-01T17:57:53.389Z,1.83
2018-12-01T18:00:25.087Z,1.90
2018-12-01T18:02:55.433Z,1.83
2018-12-01T18:05:27.000Z,1.60
2018-12-01T18:07:55.351Z,2.10
2018-12-01T18:10:24.015Z,2.03
2018-12-01T18:12:52.460Z,1.93
2018-12-01T18:15:20.799Z,2.03
2018-12-01T18:17:49.291Z,2.30
2018-12-01T18:20:21.678Z,2.20
2018-12-01T18:23:00.076Z,2.30
2018-12-01T18:25:30.846Z,2.17
2018-12-01T18:27:59.423Z,2.10
2018-12-01T18:30:33.346Z,2.17
2018-12-01T18:33:08.611Z,2.30
2018-12-01T18:35:37.122Z,2.00
2018-12-01T18:38:05.988Z,2.10
2018-12-01T18:40:40.879Z,2.03
2018-12-01T18:43:09.682Z,2.03
2018-12-01T18:45:40.846Z,2.40
2018-12-01T18:48:09.444Z,2.13
2018-12-01T18:53:17.320Z,2.17
2018-12-01T18:55:50.544Z,2.13
2018-12-01T18:58:19.145Z,2.40
2018-12-01T19:00:48.956Z,2.77
2018-12-01T19:03:17.734Z,2.13
2018-12-01T19:05:46.186Z,2.43
2018-12-01T19:08:14.514Z,2.50
2018-12-01T19:10:42.840Z,2.80
2018-12-01T19:13:11.338Z,2.77
2018-12-01T19:15:39.704Z,2.80
2018-12-01T19:18:08.472Z,2.67
2018-12-01T19:20:37.248Z,2.70
2018-12-01T19:23:06.684Z,3.27
2018-12-01T19:25:35.119Z,3.23
2018-12-01T19:28:03.688Z,3.30
2018-12-01T19:30:32.000Z,3.50
2018-12-01T19:33:04.977Z,3.50
2018-12-01T19:35:33.284Z,3.07
2018-12-01T19:38:01.585Z,3.07
2018-12-01T19:40:31.463Z,3.10
2018-12-01T19:43:00.460Z,3.00
2018-12-01T19:45:28.785Z,3.03
2018-12-01T19:47:57.253Z,3.17
2018-12-01T19:50:28.681Z,2.70
2018-12-01T19:52:57.005Z,2.40
2018-12-01T19:55:26.410Z,2.30
2018-12-01T19:57:54.753Z,2.50
2018-12-01T20:00:25.555Z,3.00
2018-12-01T20:02:54.375Z,2.40
2018-12-01T20:05:22.741Z,2.40
2018-12-01T20:07:51.904Z,2.53
2018-12-01T20:10:30.957Z,2.90
2018-12-01T20:13:07.775Z,2.60
2018-12-01T20:15:42.181Z,2.83
2018-12-01T20:18:13.991Z,2.80
2018-12-01T20:20:42.357Z,2.80
2018-12-01T20:23:10.863Z,2.87
2018-12-01T20:25:39.214Z,3.03
2018-12-01T20:28:07.658Z,3.07
2018-12-01T20:30:36.212Z,2.80
2018-12-01T20:33:04.549Z,3.30
2018-12-01T20:35:49.710Z,2.97
2018-12-01T20:40:26.437Z,3.13
2018-12-01T20:42:54.881Z,3.60
2018-12-01T20:45:23.245Z,3.90
2018-12-01T20:47:51.590Z,3.60
2018-12-01T20:50:20.310Z,3.97
2018-12-01T20:52:48.644Z,3.57
2018-12-01T20:55:22.046Z,3.80
2018-12-01T20:57:52.318Z,4.10
2018-12-01T21:00:21.416Z,4.17
2018-12-01T21:02:50.086Z,4.30
2018-12-01T21:05:19.911Z,4.20
2018-12-01T21:07:48.301Z,4.00
2018-12-01T21:10:19.879Z,3.53
2018-12-01T21:12:48.431Z,4.00
2018-12-01T21:15:16.846Z,3.93
2018-12-01T21:17:45.355Z,4.40
2018-12-01T21:20:16.234Z,3.97
2018-12-01T21:22:47.304Z,4.03
2018-12-01T21:25:19.852Z,3.77
2018-12-01T21:27:49.050Z,4.10
2018-12-01T21:30:18.966Z,3.97
2018-12-01T21:32:49.090Z,3.63
2018-12-01T21:35:17.804Z,3.63
2018-12-01T21:37:46.164Z,3.70
2018-12-01T21:40:17.157Z,3.47
2018-12-01T21:42:45.706Z,3.43
2018-12-01T21:45:16.381Z,3.80
2018-12-01T21:47:43.749Z,3.57
2018-12-01T21:50:17.494Z,3.50
2018-12-01T21:52:51.254Z,3.40
2018-12-01T21:55:19.923Z,3.30
2018-12-01T21:57:48.876Z,3.40
2018-12-01T22:00:30.258Z,3.53
2018-12-01T22:03:00.378Z,3.40
2018-12-01T22:05:32.101Z,3.50
2018-12-01T22:08:00.486Z,3.10
2018-12-01T22:10:28.893Z,3.10
2018-12-01T22:12:57.522Z,3.20
2018-12-01T22:15:25.905Z,2.90
2018-12-01T22:17:54.271Z,3.07
2018-12-01T22:20:29.932Z,3.33
2018-12-01T22:22:58.313Z,3.10
2018-12-01T22:25:26.665Z,3.33
2018-12-01T22:27:55.372Z,3.23
2018-12-01T22:30:23.716Z,3.47
2018-12-01T22:32:56.647Z,3.50
2018-12-01T22:35:27.012Z,3.23
2018-12-01T22:37:56.153Z,3.10
2018-12-01T22:40:29.486Z,3.40
2018-12-01T22:43:02.638Z,2.87
2018-12-01T22:45:31.340Z,2.97
2018-12-01T22:48:01.418Z,2.60
2018-12-01T22:50:29.773Z,2.50
2018-12-01T22:52:58.587Z,2.40
2018-12-01T22:55:30.403Z,2.80
2018-12-01T22:59:17.075Z,2.47
2018-12-01T23:01:45.407Z,2.70
2018-12-01T23:04:13.763Z,3.00
2018-12-01T23:06:42.339Z,3.07
2018-12-01T23:09:10.675Z,3.00
2018-12-01T23:11:38.998Z,3.60
2018-12-01T23:14:07.566Z,3.10
2018-12-01T23:16:35.868Z,3.00
2018-12-01T23:19:04.220Z,3.20
2018-12-01T23:21:32.791Z,3.27
2018-12-01T23:24:01.111Z,3.30
2018-12-01T23:26:29.449Z,3.33
2018-12-01T23:28:58.080Z,3.53
2018-12-01T23:31:26.416Z,3.30
2018-12-01T23:33:54.747Z,3.90
2018-12-01T23:36:23.266Z,3.47
2018-12-01T23:38:51.653Z,3.93
2018-12-01T23:41:19.954Z,4.03
2018-12-01T23:43:48.508Z,3.73
2018-12-01T23:46:16.822Z,3.90
2018-12-01T23:48:45.134Z,3.93
2018-12-01T23:51:13.742Z,3.90
2018-12-01T23:53:42.075Z,3.97
2018-12-01T23:56:10.444Z,4.10
2018-12-01T23:58:38.840Z,4.53
